Time;durP1;ratioP1;P1;durP2;ratioP2;P2;SDS_P1;SDS_P2;PMS_P1;PMS_P2;Temp;Humidity;BMP_temperature;BMP_pressure;BME280_temperature;BME280_humidity;BME280_pressure;Samples;Min_cycle;Max_cycle;Signal;HPM_P1;HPM_P2
2022/03/29 00:02:01;;;;;;;27.33;12.00;;;;;;;;;;5088314;28;20150;-83
2022/03/29 00:04:27;;;;;;;25.77;13.20;;;;;;;;;;5087097;28;20047;-83
2022/03/29 00:06:54;;;;;;;28.00;13.75;;;;;;;;;;5088954;28;20032;-83
2022/03/29 00:09:20;;;;;;;25.70;12.30;;;;;;;;;;5089780;28;20058;-82
2022/03/29 00:11:47;;;;;;;32.22;13.45;;;;;;;;;;5088713;28;20062;-83
2022/03/29 00:14:14;;;;;;;28.58;13.07;;;;;;;;;;5088489;28;20032;-83
2022/03/29 00:16:40;;;;;;;22.35;11.60;;;;;;;;;;5088559;28;20047;-82
2022/03/29 00:19:07;;;;;;;27.17;12.70;;;;;;;;;;5089338;28;20032;-82
2022/03/29 00:21:33;;;;;;;24.08;12.35;;;;;;;;;;5089648;28;20028;-82
2022/03/29 00:23:59;;;;;;;25.67;13.00;;;;;;;;;;5089860;28;20028;-83
2022/03/29 00:26:25;;;;;;;26.70;12.68;;;;;;;;;;5088237;28;20040;-83
2022/03/29 00:28:52;;;;;;;26.38;12.85;;;;;;;;;;5089355;28;20028;-83
2022/03/29 00:31:19;;;;;;;28.58;14.20;;;;;;;;;;5089485;28;20027;-83
2022/03/29 00:33:49;;;;;;;29.00;14.70;;;;;;;;;;5089763;28;20058;-82
2022/03/29 00:36:16;;;;;;;25.90;13.82;;;;;;;;;;5089532;28;20554;-82
2022/03/29 00:38:42;;;;;;;30.00;14.38;;;;;;;;;;5093446;28;20047;-82
2022/03/29 00:41:08;;;;;;;31.38;15.02;;;;;;;;;;5109191;28;20035;-81
2022/03/29 00:43:35;;;;;;;31.25;14.75;;;;;;;;;;5108176;28;20027;-81
2022/03/29 00:46:01;;;;;;;27.63;15.05;;;;;;;;;;5107655;28;20027;-81
2022/03/29 00:48:27;;;;;;;34.55;15.93;;;;;;;;;;5107956;28;20031;-83
2022/03/29 00:50:54;;;;;;;33.17;16.52;;;;;;;;;;5107865;28;20028;-82
2022/03/29 00:53:22;;;;;;;31.92;16.15;;;;;;;;;;5108139;28;20024;-82
2022/03/29 00:55:49;;;;;;;33.40;17.08;;;;;;;;;;5108084;28;20035;-82
2022/03/29 00:58:16;;;;;;;36.15;17.33;;;;;;;;;;5107168;28;20046;-83
2022/03/29 01:00:42;;;;;;;32.83;16.38;;;;;;;;;;5109946;28;20031;-82
2022/03/29 01:03:08;;;;;;;35.55;17.13;;;;;;;;;;5109915;28;20027;-82
2022/03/29 01:05:34;;;;;;;39.42;17.42;;;;;;;;;;5109306;28;20024;-81
2022/03/29 01:08:01;;;;;;;35.22;17.50;;;;;;;;;;5109483;28;20026;-83
2022/03/29 01:10:27;;;;;;;32.88;16.05;;;;;;;;;;5107351;28;20039;-82
2022/03/29 01:12:55;;;;;;;32.05;15.70;;;;;;;;;;5109323;28;20496;-82
2022/03/29 01:15:24;;;;;;;32.13;15.02;;;;;;;;;;5107633;28;20606;-82
2022/03/29 01:17:51;;;;;;;34.78;16.08;;;;;;;;;;5109265;28;20028;-83
2022/03/29 01:20:18;;;;;;;30.30;15.90;;;;;;;;;;5109187;28;20031;-82
2022/03/29 01:22:47;;;;;;;29.48;15.23;;;;;;;;;;5107560;28;20042;-83
2022/03/29 01:25:15;;;;;;;31.17;14.48;;;;;;;;;;5109411;28;20471;-82
2022/03/29 01:27:43;;;;;;;30.05;14.55;;;;;;;;;;5107396;28;20039;-82
2022/03/29 01:30:09;;;;;;;28.30;15.15;;;;;;;;;;5107556;28;20040;-83
2022/03/29 01:32:39;;;;;;;28.58;15.50;;;;;;;;;;5107726;28;20039;-83
2022/03/29 01:35:06;;;;;;;27.90;14.48;;;;;;;;;;5109355;28;20384;-83
2022/03/29 01:37:34;;;;;;;37.30;14.57;;;;;;;;;;5107363;28;20028;-83
2022/03/29 01:40:04;;;;;;;33.05;15.93;;;;;;;;;;5109134;28;20043;-84
2022/03/29 01:42:30;;;;;;;32.20;14.68;;;;;;;;;;5109282;28;20032;-83
2022/03/29 01:44:56;;;;;;;25.55;13.63;;;;;;;;;;5107387;28;20039;-83
2022/03/29 01:47:22;;;;;;;26.65;13.82;;;;;;;;;;5109121;28;20127;-83
2022/03/29 01:49:49;;;;;;;27.42;14.20;;;;;;;;;;5109339;28;20098;-83
2022/03/29 01:52:15;;;;;;;28.50;14.65;;;;;;;;;;5109638;28;20019;-82
2022/03/29 01:54:41;;;;;;;28.85;14.23;;;;;;;;;;5109320;28;20039;-82
2022/03/29 01:57:07;;;;;;;28.00;14.07;;;;;;;;;;5098675;28;20024;-81
2022/03/29 02:00:30;;;;;;;29.52;14.35;;;;;;;;;;5092714;28;20028;-81
2022/03/29 02:02:19;;;;;;;27.42;13.70;;;;;;;;;;5092347;28;20028;-81
2022/03/29 02:04:45;;;;;;;30.95;15.90;;;;;;;;;;5092360;28;20526;-82
2022/03/29 02:07:11;;;;;;;28.60;14.32;;;;;;;;;;5092251;28;20115;-81
2022/03/29 02:09:37;;;;;;;27.70;15.77;;;;;;;;;;5092309;28;20106;-81
2022/03/29 02:12:05;;;;;;;30.45;16.00;;;;;;;;;;5092356;28;20024;-82
2022/03/29 02:14:30;;;;;;;29.25;15.55;;;;;;;;;;5092277;28;20492;-81
2022/03/29 02:16:56;;;;;;;30.92;15.98;;;;;;;;;;5092122;28;20024;-82
2022/03/29 02:19:22;;;;;;;33.03;16.30;;;;;;;;;;5092191;28;20119;-82
2022/03/29 02:21:48;;;;;;;32.08;16.73;;;;;;;;;;5092089;28;20111;-82
2022/03/29 02:24:14;;;;;;;30.80;16.23;;;;;;;;;;5092232;28;20086;-82
2022/03/29 02:26:40;;;;;;;34.25;16.58;;;;;;;;;;5090479;28;20119;-82
2022/03/29 02:29:06;;;;;;;32.25;15.77;;;;;;;;;;5091710;28;20036;-82
2022/03/29 02:31:31;;;;;;;34.83;16.33;;;;;;;;;;5091307;28;20147;-83
2022/03/29 02:33:57;;;;;;;32.03;16.02;;;;;;;;;;5090233;28;20114;-82
2022/03/29 02:36:23;;;;;;;36.00;16.75;;;;;;;;;;5089960;28;20103;-82
2022/03/29 02:38:49;;;;;;;35.13;16.73;;;;;;;;;;5089717;28;20108;-82
2022/03/29 02:41:15;;;;;;;33.60;16.20;;;;;;;;;;5089554;28;20536;-83
2022/03/29 02:43:41;;;;;;;32.78;16.38;;;;;;;;;;5090049;28;20062;-82
2022/03/29 02:46:07;;;;;;;30.48;15.60;;;;;;;;;;5090203;28;20111;-82
2022/03/29 02:48:33;;;;;;;33.38;16.30;;;;;;;;;;5092985;28;20472;-81
2022/03/29 02:50:59;;;;;;;32.25;15.68;;;;;;;;;;5091603;28;20032;-82
2022/03/29 02:53:24;;;;;;;33.00;16.65;;;;;;;;;;5091474;28;20052;-81
2022/03/29 02:55:50;;;;;;;33.03;16.70;;;;;;;;;;5100735;28;20067;-81
2022/03/29 02:58:16;;;;;;;36.38;16.55;;;;;;;;;;5110764;28;20524;-81
2022/03/29 03:00:42;;;;;;;30.75;16.05;;;;;;;;;;5112495;28;20027;-82
2022/03/29 03:03:08;;;;;;;32.45;15.57;;;;;;;;;;5112211;28;20034;-80
2022/03/29 03:05:34;;;;;;;33.50;15.75;;;;;;;;;;5116109;28;20062;-82
2022/03/29 03:08:00;;;;;;;34.40;15.82;;;;;;;;;;5118773;28;20024;-80
2022/03/29 03:10:26;;;;;;;33.80;16.75;;;;;;;;;;5118024;28;20028;-81
2022/03/29 03:12:52;;;;;;;32.90;15.45;;;;;;;;;;5115545;28;20461;-82
2022/03/29 03:15:21;;;;;;;34.08;15.88;;;;;;;;;;5111835;28;20028;-82
2022/03/29 03:17:47;;;;;;;33.22;15.45;;;;;;;;;;5111380;28;20097;-82
2022/03/29 03:20:13;;;;;;;33.40;15.73;;;;;;;;;;5111598;28;20028;-81
2022/03/29 03:22:39;;;;;;;29.13;15.40;;;;;;;;;;5111705;28;20456;-83
2022/03/29 03:25:06;;;;;;;33.40;14.95;;;;;;;;;;5111729;28;20054;-83
2022/03/29 03:27:34;;;;;;;35.88;15.38;;;;;;;;;;5111227;28;20016;-83
2022/03/29 03:30:01;;;;;;;35.47;16.27;;;;;;;;;;5109545;28;20039;-82
2022/03/29 03:32:27;;;;;;;41.75;15.98;;;;;;;;;;5110996;28;20030;-82
2022/03/29 03:34:53;;;;;;;31.95;15.38;;;;;;;;;;5111191;28;20114;-83
2022/03/29 03:37:18;;;;;;;37.50;17.05;;;;;;;;;;5110738;28;20130;-83
2022/03/29 03:39:44;;;;;;;34.38;16.23;;;;;;;;;;5111069;28;20051;-83
2022/03/29 03:42:10;;;;;;;34.80;16.35;;;;;;;;;;5111656;28;20082;-82
2022/03/29 03:44:37;;;;;;;35.85;17.35;;;;;;;;;;5109172;28;20043;-83
2022/03/29 03:47:10;;;;;;;38.25;16.23;;;;;;;;;;5121261;27;20027;-82
2022/03/29 03:49:37;;;;;;;33.88;16.85;;;;;;;;;;5090319;28;20504;-82
2022/03/29 03:52:03;;;;;;;38.47;18.00;;;;;;;;;;5090157;28;20480;-83
2022/03/29 03:54:29;;;;;;;34.63;16.55;;;;;;;;;;5093475;28;20028;-82
2022/03/29 03:56:55;;;;;;;36.40;15.98;;;;;;;;;;5113681;28;20016;-83
2022/03/29 03:59:21;;;;;;;34.28;16.35;;;;;;;;;;5115043;28;20015;-83
2022/03/29 04:01:47;;;;;;;35.83;16.60;;;;;;;;;;5117965;28;20027;-82
2022/03/29 04:04:12;;;;;;;36.28;17.08;;;;;;;;;;5115679;28;20016;-82
2022/03/29 04:06:38;;;;;;;35.10;16.23;;;;;;;;;;5114805;28;20051;-82
2022/03/29 04:09:04;;;;;;;33.17;16.60;;;;;;;;;;5107991;28;20036;-83
2022/03/29 04:11:30;;;;;;;34.28;16.23;;;;;;;;;;5090803;28;20492;-83
2022/03/29 04:13:58;;;;;;;31.33;16.80;;;;;;;;;;5090522;28;20111;-82
2022/03/29 04:16:25;;;;;;;34.70;16.48;;;;;;;;;;5090402;28;20035;-82
2022/03/29 04:18:51;;;;;;;34.25;16.52;;;;;;;;;;5090019;28;20257;-83
2022/03/29 04:21:17;;;;;;;32.80;16.90;;;;;;;;;;5090223;28;20028;-83
2022/03/29 04:23:48;;;;;;;34.03;17.30;;;;;;;;;;5090507;28;20397;-82
2022/03/29 04:26:14;;;;;;;;;;;;;;;;;;5090326;28;20044;-82
2022/03/29 04:28:40;;;;;;;32.85;15.45;;;;;;;;;;5090005;28;20398;-82
2022/03/29 04:31:08;;;;;;;32.75;15.85;;;;;;;;;;5089811;28;20039;-82
2022/03/29 04:33:34;;;;;;;36.13;17.45;;;;;;;;;;5088784;28;20496;-82
2022/03/29 04:36:00;;;;;;;37.13;17.17;;;;;;;;;;5089733;28;20032;-82
2022/03/29 04:38:26;;;;;;;34.95;16.77;;;;;;;;;;5088451;28;20060;-83
2022/03/29 04:40:52;;;;;;;34.08;17.05;;;;;;;;;;5092148;28;20039;-83
2022/03/29 04:43:18;;;;;;;35.15;17.77;;;;;;;;;;5092362;28;20028;-80
2022/03/29 04:45:44;;;;;;;35.85;17.48;;;;;;;;;;5090616;28;20028;-83
2022/03/29 04:48:11;;;;;;;32.55;15.88;;;;;;;;;;5095878;28;20380;-90
2022/03/29 04:50:38;;;;;;;32.95;15.98;;;;;;;;;;5096396;28;20035;-87
2022/03/29 04:53:04;;;;;;;34.72;16.95;;;;;;;;;;5110585;28;20040;-87
2022/03/29 04:55:31;;;;;;;35.63;16.58;;;;;;;;;;5110108;28;20039;-88
2022/03/29 04:57:57;;;;;;;33.08;16.77;;;;;;;;;;5110361;28;20043;-86
2022/03/29 05:00:23;;;;;;;34.80;17.60;;;;;;;;;;5113171;28;20054;-86
2022/03/29 05:02:49;;;;;;;35.55;17.80;;;;;;;;;;5112595;28;20044;-85
2022/03/29 05:05:15;;;;;;;37.33;17.65;;;;;;;;;;5114479;28;20028;-87
2022/03/29 05:07:42;;;;;;;33.08;16.35;;;;;;;;;;5115024;28;20476;-88
2022/03/29 05:10:09;;;;;;;33.67;17.20;;;;;;;;;;5110526;28;20047;-85
2022/03/29 05:12:45;;;;;;;36.17;18.20;;;;;;;;;;5109381;28;20035;-84
2022/03/29 05:15:12;;;;;;;37.75;17.58;;;;;;;;;;5109524;28;20039;-84
2022/03/29 05:17:39;;;;;;;35.53;17.73;;;;;;;;;;5109386;28;20032;-84
2022/03/29 05:20:07;;;;;;;35.72;18.08;;;;;;;;;;5109213;28;20032;-85
2022/03/29 05:23:00;;;;;;;34.42;17.08;;;;;;;;;;5108811;28;20031;-84
2022/03/29 05:25:26;;;;;;;36.60;17.13;;;;;;;;;;5110704;28;20024;-84
2022/03/29 05:27:54;;;;;;;35.63;16.88;;;;;;;;;;5109485;28;20028;-83
2022/03/29 05:30:21;;;;;;;35.92;18.38;;;;;;;;;;5108748;28;20384;-83
2022/03/29 05:32:47;;;;;;;43.20;20.95;;;;;;;;;;5110438;28;20484;-81
2022/03/29 05:35:14;;;;;;;33.85;17.25;;;;;;;;;;5111308;28;20035;-82
2022/03/29 05:37:41;;;;;;;37.00;18.13;;;;;;;;;;5112440;28;20121;-83
2022/03/29 05:40:09;;;;;;;37.20;18.83;;;;;;;;;;5112726;28;20510;-83
2022/03/29 05:42:39;;;;;;;39.80;18.73;;;;;;;;;;5112593;28;20040;-84
2022/03/29 05:45:06;;;;;;;40.92;18.88;;;;;;;;;;5113102;28;20050;-83
2022/03/29 05:50:17;;;;;;;37.67;18.27;;;;;;;;;;5112911;28;20403;-84
2022/03/29 05:52:43;;;;;;;44.03;20.63;;;;;;;;;;5113092;28;20284;-83
2022/03/29 05:55:09;;;;;;;46.03;20.58;;;;;;;;;;5113104;28;20055;-83
2022/03/29 05:57:35;;;;;;;41.88;19.90;;;;;;;;;;5112707;28;20066;-79
2022/03/29 06:00:01;;;;;;;46.65;19.75;;;;;;;;;;5112954;28;20426;-83
2022/03/29 06:02:26;;;;;;;54.72;20.98;;;;;;;;;;5112025;28;20036;-84
2022/03/29 06:04:52;;;;;;;43.03;19.85;;;;;;;;;;5112491;28;20110;-84
2022/03/29 06:07:19;;;;;;;44.17;19.52;;;;;;;;;;5111457;28;20110;-84
2022/03/29 06:09:45;;;;;;;46.40;19.98;;;;;;;;;;5109079;28;20507;-83
2022/03/29 06:12:10;;;;;;;60.50;20.52;;;;;;;;;;5101913;28;20032;-83
2022/03/29 06:14:36;;;;;;;52.63;20.77;;;;;;;;;;5103698;28;20032;-84
2022/03/29 06:17:04;;;;;;;63.47;21.42;;;;;;;;;;5094516;28;20484;-84
2022/03/29 06:19:30;;;;;;;70.18;23.30;;;;;;;;;;5092807;28;20031;-84
2022/03/29 06:21:56;;;;;;;44.45;21.27;;;;;;;;;;5092127;28;20032;-84
2022/03/29 06:24:22;;;;;;;58.40;20.35;;;;;;;;;;5093573;28;20122;-84
2022/03/29 06:26:48;;;;;;;46.00;20.50;;;;;;;;;;5090321;28;20032;-82
2022/03/29 06:29:14;;;;;;;43.67;20.75;;;;;;;;;;5091005;28;20206;-86
2022/03/29 06:31:40;;;;;;;53.45;21.25;;;;;;;;;;5091112;28;20523;-83
2022/03/29 06:34:06;;;;;;;43.95;19.90;;;;;;;;;;5094541;28;20111;-83
2022/03/29 06:36:32;;;;;;;52.53;20.40;;;;;;;;;;5091768;28;20036;-84
2022/03/29 06:38:58;;;;;;;63.03;21.98;;;;;;;;;;5091497;28;20031;-83
2022/03/29 06:41:24;;;;;;;45.90;20.13;;;;;;;;;;5092101;28;20060;-83
2022/03/29 06:43:49;;;;;;;63.92;21.65;;;;;;;;;;5109275;28;20059;-75
2022/03/29 06:46:16;;;;;;;47.90;20.10;;;;;;;;;;5111954;28;20656;-76
2022/03/29 06:48:44;;;;;;;55.22;22.38;;;;;;;;;;5111804;28;20430;-75
2022/03/29 06:51:12;;;;;;;62.40;31.55;;;;;;;;;;5097705;27;20036;-75
2022/03/29 06:53:39;;;;;;;52.67;26.33;;;;;;;;;;5118025;27;20035;-76
2022/03/29 06:56:07;;;;;;;43.72;19.63;;;;;;;;;;5130648;27;20067;-78
2022/03/29 06:58:37;;;;;;;44.70;20.73;;;;;;;;;;5117923;27;20024;-74
2022/03/29 07:01:03;;;;;;;44.28;20.55;;;;;;;;;;5111076;27;20341;-76
2022/03/29 07:03:34;;;;;;;39.55;20.88;;;;;;;;;;5109837;27;20405;-85
2022/03/29 07:06:00;;;;;;;43.92;21.67;;;;;;;;;;5119943;27;20043;-85
2022/03/29 07:08:26;;;;;;;49.55;21.83;;;;;;;;;;5118517;28;20028;-84
2022/03/29 07:13:39;;;;;;;45.78;21.60;;;;;;;;;;5111373;28;20503;-80
2022/03/29 07:16:05;;;;;;;40.03;20.92;;;;;;;;;;5108207;28;20042;-82
2022/03/29 07:18:32;;;;;;;44.33;20.30;;;;;;;;;;5110864;28;20028;-82
2022/03/29 07:20:58;;;;;;;42.50;19.90;;;;;;;;;;5112186;28;20039;-81
2022/03/29 07:23:25;;;;;;;36.65;20.58;;;;;;;;;;5113848;28;20035;-86
2022/03/29 07:25:51;;;;;;;34.25;19.35;;;;;;;;;;5107583;28;20043;-82
2022/03/29 07:28:17;;;;;;;39.25;20.27;;;;;;;;;;5109861;28;20031;-86
2022/03/29 07:30:44;;;;;;;37.92;21.27;;;;;;;;;;5114521;27;20039;-84
2022/03/29 07:33:11;;;;;;;37.17;19.60;;;;;;;;;;5113808;28;20027;-82
2022/03/29 07:35:38;;;;;;;36.40;20.02;;;;;;;;;;5116615;27;20522;-85
2022/03/29 07:38:07;;;;;;;38.20;20.17;;;;;;;;;;5124514;27;20388;-82
2022/03/29 07:40:34;;;;;;;38.13;19.15;;;;;;;;;;5110304;28;20030;-83
2022/03/29 07:43:00;;;;;;;39.40;19.85;;;;;;;;;;5114078;28;20376;-82
2022/03/29 07:45:27;;;;;;;41.80;19.83;;;;;;;;;;5114051;28;20031;-80
2022/03/29 07:47:56;;;;;;;34.88;18.55;;;;;;;;;;5108728;28;20030;-81
2022/03/29 07:50:25;;;;;;;36.38;18.55;;;;;;;;;;5109257;28;20051;-82
2022/03/29 07:52:50;;;;;;;36.03;19.13;;;;;;;;;;5112798;28;20054;-85
2022/03/29 07:55:17;;;;;;;32.35;17.02;;;;;;;;;;5112051;28;20432;-84
2022/03/29 07:57:43;;;;;;;34.03;17.40;;;;;;;;;;5109582;28;20388;-81
2022/03/29 08:02:58;;;;;;;30.73;16.52;;;;;;;;;;5123665;27;20035;-88
2022/03/29 08:05:24;;;;;;;35.83;18.33;;;;;;;;;;5135350;27;20043;-89
2022/03/29 08:07:51;;;;;;;30.42;16.17;;;;;;;;;;5122791;27;20035;-89
2022/03/29 08:10:17;;;;;;;32.75;17.15;;;;;;;;;;5119456;28;20034;-89
2022/03/29 08:12:44;;;;;;;31.17;16.88;;;;;;;;;;5092913;28;20058;-88
2022/03/29 08:15:11;;;;;;;38.42;16.05;;;;;;;;;;5096941;28;20035;-89
2022/03/29 08:17:38;;;;;;;32.97;15.05;;;;;;;;;;5095560;28;20028;-88
2022/03/29 08:20:05;;;;;;;29.00;15.07;;;;;;;;;;5091555;28;20024;-87
2022/03/29 08:22:32;;;;;;;29.45;14.88;;;;;;;;;;5095070;28;20028;-89
2022/03/29 08:25:00;;;;;;;30.88;14.40;;;;;;;;;;5133057;28;20045;-88
2022/03/29 08:27:26;;;;;;;27.35;15.45;;;;;;;;;;5134457;28;20039;-87
2022/03/29 08:29:52;;;;;;;27.55;14.63;;;;;;;;;;5124181;28;20046;-80
2022/03/29 08:32:18;;;;;;;27.70;13.90;;;;;;;;;;5115287;28;20492;-82
2022/03/29 08:34:44;;;;;;;21.52;13.57;;;;;;;;;;5113143;28;20031;-84
2022/03/29 08:37:10;;;;;;;24.88;13.43;;;;;;;;;;5112204;28;20041;-80
2022/03/29 08:39:37;;;;;;;23.17;13.88;;;;;;;;;;5112440;28;20031;-80
2022/03/29 08:42:07;;;;;;;27.15;14.27;;;;;;;;;;5108737;28;20304;-81
2022/03/29 08:44:34;;;;;;;23.80;13.15;;;;;;;;;;5109123;28;20506;-81
2022/03/29 08:47:01;;;;;;;22.33;13.85;;;;;;;;;;5109426;28;20545;-79
2022/03/29 08:49:27;;;;;;;28.33;13.10;;;;;;;;;;5109995;28;20031;-79
2022/03/29 08:51:53;;;;;;;20.83;13.43;;;;;;;;;;5109959;28;20388;-81
2022/03/29 08:54:22;;;;;;;20.73;12.43;;;;;;;;;;5109864;28;20024;-81
2022/03/29 08:56:48;;;;;;;20.92;11.75;;;;;;;;;;5108444;28;20039;-81
2022/03/29 08:59:15;;;;;;;21.83;11.38;;;;;;;;;;5109861;28;20035;-81
2022/03/29 09:01:41;;;;;;;18.63;11.45;;;;;;;;;;5110050;28;20055;-82
2022/03/29 09:04:16;;;;;;;19.45;12.20;;;;;;;;;;5091140;28;20055;-81
2022/03/29 09:06:50;;;;;;;22.17;13.75;;;;;;;;;;5094814;28;20023;-82
2022/03/29 09:09:24;;;;;;;22.70;13.88;;;;;;;;;;5094225;28;20043;-81
2022/03/29 09:11:53;;;;;;;19.60;11.77;;;;;;;;;;5125945;27;20024;-84
2022/03/29 09:14:20;;;;;;;19.33;11.23;;;;;;;;;;5135016;28;20016;-81
2022/03/29 09:16:46;;;;;;;20.67;11.73;;;;;;;;;;5122384;28;20035;-83
2022/03/29 09:19:12;;;;;;;25.05;12.40;;;;;;;;;;5116053;28;20518;-82
2022/03/29 09:21:45;;;;;;;22.17;12.35;;;;;;;;;;5115216;28;20031;-82
2022/03/29 09:24:14;;;;;;;20.60;12.35;;;;;;;;;;5114089;28;20379;-81
2022/03/29 09:26:45;;;;;;;23.45;11.85;;;;;;;;;;5113715;28;20028;-78
2022/03/29 09:29:22;;;;;;;23.00;12.38;;;;;;;;;;5112700;28;20031;-81
2022/03/29 09:32:06;;;;;;;22.90;12.68;;;;;;;;;;5113844;28;20183;-81
2022/03/29 09:34:33;;;;;;;20.23;11.57;;;;;;;;;;5112290;28;20031;-82
2022/03/29 09:37:01;;;;;;;19.25;11.98;;;;;;;;;;5111474;28;20050;-81
2022/03/29 09:39:36;;;;;;;25.42;12.95;;;;;;;;;;5113715;28;20032;-84
2022/03/29 09:42:11;;;;;;;21.25;12.30;;;;;;;;;;5113661;28;20027;-84
2022/03/29 09:44:42;;;;;;;23.30;12.65;;;;;;;;;;5113542;28;20469;-84
2022/03/29 09:47:09;;;;;;;;;;;;;;;;;;5112230;28;20046;-84
2022/03/29 09:49:54;;;;;;;20.90;11.30;;;;;;;;;;5112031;28;20265;-84
2022/03/29 09:52:23;;;;;;;20.33;11.85;;;;;;;;;;5113371;28;20028;-84
2022/03/29 09:55:25;;;;;;;32.38;12.93;;;;;;;;;;5113490;28;20032;-84
2022/03/29 09:57:53;;;;;;;25.17;11.65;;;;;;;;;;5069513;28;20039;-83
2022/03/29 10:00:25;;;;;;;18.08;11.10;;;;;;;;;;5104844;28;20048;-84
2022/03/29 10:02:51;;;;;;;21.33;12.70;;;;;;;;;;5111529;28;20040;-83
2022/03/29 10:05:19;;;;;;;33.22;18.98;;;;;;;;;;5111303;28;20027;-83
2022/03/29 10:07:51;;;;;;;18.30;10.93;;;;;;;;;;5092373;28;20024;-83
2022/03/29 10:10:18;;;;;;;21.77;11.63;;;;;;;;;;5092484;28;20035;-83
2022/03/29 10:12:44;;;;;;;16.08;10.52;;;;;;;;;;5092181;28;20028;-83
2022/03/29 10:15:12;;;;;;;18.52;11.82;;;;;;;;;;5091307;28;20047;-84
2022/03/29 10:17:39;;;;;;;17.48;11.00;;;;;;;;;;5091377;28;20032;-84
2022/03/29 10:20:07;;;;;;;16.77;10.13;;;;;;;;;;5092751;28;20020;-84
2022/03/29 10:22:35;;;;;;;21.05;10.25;;;;;;;;;;5092432;28;20039;-85
2022/03/29 10:25:01;;;;;;;20.85;11.48;;;;;;;;;;5090939;28;20384;-84
2022/03/29 10:27:27;;;;;;;18.95;10.82;;;;;;;;;;5091949;28;20024;-82
2022/03/29 10:29:53;;;;;;;19.55;11.05;;;;;;;;;;5092271;28;20024;-83
2022/03/29 10:32:31;;;;;;;23.45;12.40;;;;;;;;;;5092622;28;20365;-83
2022/03/29 10:35:03;;;;;;;24.73;14.13;;;;;;;;;;5092097;28;20515;-83
2022/03/29 10:37:29;;;;;;;21.60;13.48;;;;;;;;;;5100702;27;20050;-85
2022/03/29 10:40:07;;;;;;;23.70;14.38;;;;;;;;;;5112500;28;20042;-83
2022/03/29 10:42:44;;;;;;;22.05;13.25;;;;;;;;;;5109565;28;20488;-84
2022/03/29 10:45:18;;;;;;;22.35;13.30;;;;;;;;;;5118791;27;20185;-83
2022/03/29 10:48:05;;;;;;;19.90;12.98;;;;;;;;;;5111154;27;20031;-82
2022/03/29 10:50:47;;;;;;;23.77;14.00;;;;;;;;;;5112364;28;20404;-85
2022/03/29 10:53:35;;;;;;;24.42;13.73;;;;;;;;;;5111889;28;20046;-85
2022/03/29 10:56:11;;;;;;;20.38;13.02;;;;;;;;;;5107115;28;20046;-84
2022/03/29 10:59:02;;;;;;;21.40;13.50;;;;;;;;;;5109114;28;20028;-87
2022/03/29 11:01:30;;;;;;;29.15;15.93;;;;;;;;;;5102226;27;20028;-81
2022/03/29 11:04:07;;;;;;;25.10;15.32;;;;;;;;;;5105659;27;20019;-84
2022/03/29 11:06:35;;;;;;;23.77;15.70;;;;;;;;;;5098641;27;20040;-82
2022/03/29 11:09:17;;;;;;;25.30;14.00;;;;;;;;;;5106918;27;20019;-83
2022/03/29 11:11:48;;;;;;;25.30;14.02;;;;;;;;;;5109936;28;20039;-78
2022/03/29 11:14:33;;;;;;;24.55;13.65;;;;;;;;;;5111716;28;20050;-80
2022/03/29 11:17:17;;;;;;;24.23;14.60;;;;;;;;;;5111034;28;20028;-85
2022/03/29 11:19:48;;;;;;;22.60;13.82;;;;;;;;;;5098637;22;20044;-83
2022/03/29 11:22:23;;;;;;;25.17;13.57;;;;;;;;;;5049162;28;20025;-84
2022/03/29 11:24:51;;;;;;;23.90;14.40;;;;;;;;;;5047944;28;20041;-84
2022/03/29 11:27:31;;;;;;;24.77;13.75;;;;;;;;;;5050852;28;20029;-84
2022/03/29 11:29:57;;;;;;;22.67;13.32;;;;;;;;;;5050741;28;20474;-84
2022/03/29 11:32:23;;;;;;;21.10;12.55;;;;;;;;;;5032113;28;20047;-85
2022/03/29 11:34:58;;;;;;;22.83;12.75;;;;;;;;;;5032033;28;20340;-86
2022/03/29 11:37:37;;;;;;;22.30;13.23;;;;;;;;;;5050628;28;20417;-84
2022/03/29 11:40:04;;;;;;;25.65;13.70;;;;;;;;;;5051223;28;20020;-84
2022/03/29 11:42:48;;;;;;;22.52;12.48;;;;;;;;;;5032051;28;20043;-84
2022/03/29 11:45:18;;;;;;;22.35;12.85;;;;;;;;;;5050692;28;20029;-85
2022/03/29 11:48:02;;;;;;;21.20;12.40;;;;;;;;;;5050454;28;20355;-84
2022/03/29 11:50:35;;;;;;;20.58;12.20;;;;;;;;;;5051301;28;20397;-82
2022/03/29 11:53:22;;;;;;;21.98;12.73;;;;;;;;;;5050826;28;20029;-85
2022/03/29 11:56:09;;;;;;;20.90;11.60;;;;;;;;;;5050268;28;20504;-85
2022/03/29 11:58:40;;;;;;;19.77;10.57;;;;;;;;;;5049870;28;20044;-83
2022/03/29 12:01:09;;;;;;;20.33;11.43;;;;;;;;;;5049965;28;20385;-85
2022/03/29 12:03:41;;;;;;;21.38;11.13;;;;;;;;;;5050178;28;20478;-85
2022/03/29 12:06:07;;;;;;;22.13;12.02;;;;;;;;;;5050035;28;20036;-85
2022/03/29 12:08:58;;;;;;;22.90;12.02;;;;;;;;;;5050051;28;20021;-85
2022/03/29 12:11:31;;;;;;;18.15;11.57;;;;;;;;;;5031899;28;20064;-85
2022/03/29 12:14:18;;;;;;;21.38;11.45;;;;;;;;;;5054929;28;20484;-83
2022/03/29 12:16:53;;;;;;;20.50;12.02;;;;;;;;;;5048104;28;20037;-83
2022/03/29 12:19:22;;;;;;;19.92;11.43;;;;;;;;;;5056819;28;20389;-82
2022/03/29 12:21:51;;;;;;;21.17;10.90;;;;;;;;;;5050496;28;20037;-85
2022/03/29 12:24:18;;;;;;;18.17;11.52;;;;;;;;;;5046559;28;20029;-80
2022/03/29 12:26:49;;;;;;;22.92;12.02;;;;;;;;;;5042850;28;20528;-78
2022/03/29 12:29:19;;;;;;;19.70;11.02;;;;;;;;;;5046851;28;20039;-79
2022/03/29 12:31:45;;;;;;;25.20;13.35;;;;;;;;;;5047271;28;20040;-78
2022/03/29 12:34:13;;;;;;;22.15;12.77;;;;;;;;;;5052483;28;20025;-86
2022/03/29 12:36:48;;;;;;;21.83;12.13;;;;;;;;;;5016851;28;20461;-85
2022/03/29 12:39:14;;;;;;;19.73;11.23;;;;;;;;;;5044935;28;20033;-83
2022/03/29 12:41:51;;;;;;;23.27;11.90;;;;;;;;;;5048890;28;20033;-84
2022/03/29 12:44:36;;;;;;;21.25;11.50;;;;;;;;;;5048073;28;20025;-87
2022/03/29 12:47:04;;;;;;;21.17;11.88;;;;;;;;;;5051555;28;20029;-85
2022/03/29 12:49:32;;;;;;;18.63;10.95;;;;;;;;;;5050175;28;20028;-88
2022/03/29 12:52:00;;;;;;;25.95;11.95;;;;;;;;;;5052771;28;20028;-84
2022/03/29 12:54:35;;;;;;;22.92;12.40;;;;;;;;;;5048982;28;20463;-86
2022/03/29 12:57:02;;;;;;;21.10;11.75;;;;;;;;;;5015806;28;20049;-86
2022/03/29 13:00:14;;;;;;;22.58;12.15;;;;;;;;;;5040920;28;20045;-82
2022/03/29 13:02:43;;;;;;;19.75;11.90;;;;;;;;;;5033449;28;20037;-83
2022/03/29 13:05:10;;;;;;;22.85;13.63;;;;;;;;;;5027089;28;20033;-79
2022/03/29 13:07:48;;;;;;;21.40;12.10;;;;;;;;;;5046842;28;20032;-72
2022/03/29 13:10:16;;;;;;;20.67;12.30;;;;;;;;;;5044209;28;20025;-73
2022/03/29 13:12:48;;;;;;;23.48;12.38;;;;;;;;;;5047628;28;20549;-72
2022/03/29 13:15:39;;;;;;;22.75;11.50;;;;;;;;;;5040106;28;20033;-69
2022/03/29 13:18:18;;;;;;;23.67;13.27;;;;;;;;;;5019586;28;20029;-75
2022/03/29 13:20:44;;;;;;;25.05;13.00;;;;;;;;;;5045155;28;20501;-73
2022/03/29 13:23:10;;;;;;;31.23;13.63;;;;;;;;;;5042359;28;20556;-80
2022/03/29 13:25:37;;;;;;;32.53;13.93;;;;;;;;;;5040121;28;20036;-76
2022/03/29 13:28:05;;;;;;;24.42;12.70;;;;;;;;;;5037662;28;20033;-70
2022/03/29 13:30:33;;;;;;;26.30;13.38;;;;;;;;;;5048174;28;20033;-68
2022/03/29 13:32:59;;;;;;;28.00;13.38;;;;;;;;;;5029653;28;20032;-73
2022/03/29 13:35:25;;;;;;;23.17;12.30;;;;;;;;;;5029487;28;20029;-69
2022/03/29 13:37:51;;;;;;;26.45;13.20;;;;;;;;;;5044492;28;20315;-65
2022/03/29 13:40:17;;;;;;;22.20;12.43;;;;;;;;;;5048128;28;20044;-72
2022/03/29 13:42:43;;;;;;;24.23;13.23;;;;;;;;;;5034190;28;20029;-68
2022/03/29 13:45:10;;;;;;;25.40;13.02;;;;;;;;;;5034171;28;20021;-67
2022/03/29 13:47:37;;;;;;;26.75;12.98;;;;;;;;;;5047904;28;20029;-67
2022/03/29 13:50:05;;;;;;;24.15;12.60;;;;;;;;;;5039483;28;20029;-69
2022/03/29 13:52:32;;;;;;;27.92;13.10;;;;;;;;;;5042016;28;20036;-70
2022/03/29 13:54:57;;;;;;;24.58;13.35;;;;;;;;;;5048485;28;20036;-69
2022/03/29 13:57:23;;;;;;;21.25;13.32;;;;;;;;;;5037414;28;20136;-67
2022/03/29 13:59:49;;;;;;;24.38;12.45;;;;;;;;;;5026302;28;20120;-67
2022/03/29 14:02:15;;;;;;;23.35;13.35;;;;;;;;;;5050652;28;20020;-67
2022/03/29 14:04:41;;;;;;;25.75;13.57;;;;;;;;;;5042913;28;20120;-68
2022/03/29 14:07:07;;;;;;;23.00;12.65;;;;;;;;;;5047883;28;20104;-68
2022/03/29 14:09:33;;;;;;;28.45;16.80;;;;;;;;;;5046936;28;20043;-68
2022/03/29 14:11:59;;;;;;;26.98;15.00;;;;;;;;;;5047909;28;20390;-70
2022/03/29 14:14:25;;;;;;;25.60;13.23;;;;;;;;;;5041806;28;20033;-70
2022/03/29 14:16:51;;;;;;;31.13;13.43;;;;;;;;;;5052031;28;20031;-71
2022/03/29 14:19:17;;;;;;;21.23;12.65;;;;;;;;;;5034112;28;20380;-70
2022/03/29 14:21:43;;;;;;;21.17;12.45;;;;;;;;;;5043486;28;20036;-75
2022/03/29 14:24:09;;;;;;;26.05;13.00;;;;;;;;;;5050838;28;20017;-69
2022/03/29 14:26:35;;;;;;;22.52;13.38;;;;;;;;;;5050412;28;20033;-77
2022/03/29 14:29:01;;;;;;;24.60;12.98;;;;;;;;;;5047251;28;20023;-76
2022/03/29 14:31:28;;;;;;;28.55;12.73;;;;;;;;;;5047258;28;20037;-76
2022/03/29 14:33:57;;;;;;;23.73;12.98;;;;;;;;;;5049333;28;20036;-76
2022/03/29 14:36:24;;;;;;;26.85;13.48;;;;;;;;;;5050096;28;20033;-77